Aparecida d'Oeste, Brazil
Current Conditions -  °F | °C
As of 5:00 AM on Monday 20 Oct 2014 (Local Time) from SBAU Reporting Station
Broken Clouds Broken Clouds  
Wind Chill: 72°   Ceiling: 7000
Heat Index: 72°   Visibility: 6mi
Dew Point: 70°   Wind: 5mph
Humidity: 94%   Direction: 290°WNW
Pressure: 29.97"   Gusts: NA
Location:  20.45°S, 50.88°W
Report Text: SBAU 200800Z 29004KT 9000 SCT030 SCT050 BKN070 22/21 Q1015
Loading
Personal Weather Stations






























Interactive Weather Map
Tropical Storm Tracking
New forecast layout! Learn more

10-Day Weather Forecast

Advertisements
Track Severe Weather on mobile